Time;durP1;ratioP1;P1;durP2;ratioP2;P2;SDS_P1;SDS_P2;PMS_P1;PMS_P2;Temp;Humidity;BMP_temperature;BMP_pressure;BME280_temperature;BME280_humidity;BME280_pressure;Samples;Min_cycle;Max_cycle;Signal;HPM_P1;HPM_P2
2022/01/27 00:01:35;;;;;;;48.97;21.75;;;;;;;-146.19;100.00;58918.88;4994694;28;20072;-49
2022/01/27 00:04:10;;;;;;;45.58;18.35;;;;;;;-146.19;100.00;58918.88;5004400;28;20077;-52
2022/01/27 00:06:40;;;;;;;50.85;20.60;;;;;;;-146.19;100.00;58918.88;4997426;28;20116;-48
2022/01/27 00:09:19;;;;;;;42.40;17.50;;;;;;;-146.19;100.00;58918.88;4997299;28;20104;-48
2022/01/27 00:11:48;;;;;;;47.75;19.08;;;;;;;-146.19;100.00;58918.88;4992860;28;20078;-53
2022/01/27 00:14:20;;;;;;;44.50;18.83;;;;;;;-146.19;100.00;58918.88;5006037;28;20072;-52
2022/01/27 00:16:57;;;;;;;50.67;21.05;;;;;;;-146.19;100.00;58918.88;5005772;28;20133;-52
2022/01/27 00:19:26;;;;;;;47.53;19.63;;;;;;;-146.19;100.00;58918.88;4996093;28;20120;-51
2022/01/27 00:21:55;;;;;;;45.60;18.17;;;;;;;-146.19;100.00;58918.88;5003346;28;20373;-48
2022/01/27 00:24:24;;;;;;;44.00;20.83;;;;;;;-146.19;100.00;58918.88;5004496;28;20583;-50
2022/01/27 00:26:53;;;;;;;46.53;21.25;;;;;;;-146.19;100.00;58918.88;5001324;28;20481;-53
2022/01/27 00:29:22;;;;;;;47.05;19.65;;;;;;;-146.19;100.00;58918.88;4996312;28;20078;-52
2022/01/27 00:31:50;;;;;;;52.35;22.13;;;;;;;-146.19;100.00;58918.88;5004657;28;20108;-51
2022/01/27 00:34:19;;;;;;;48.88;20.95;;;;;;;-146.19;100.00;58918.88;4991853;28;20069;-55
2022/01/27 00:36:47;;;;;;;47.08;20.05;;;;;;;-146.19;100.00;58918.88;4999364;28;20078;-50
2022/01/27 00:39:16;;;;;;;39.38;16.63;;;;;;;-146.19;100.00;58918.88;5001353;28;20552;-51
2022/01/27 00:41:45;;;;;;;45.95;16.65;;;;;;;-146.19;100.00;58918.88;4996256;28;20093;-51
2022/01/27 00:44:14;;;;;;;38.58;16.10;;;;;;;-146.19;100.00;58918.88;4977098;28;20078;-53
2022/01/27 00:46:43;;;;;;;32.88;14.15;;;;;;;-146.19;100.00;58918.88;4975662;28;20461;-50
2022/01/27 00:49:11;;;;;;;42.42;17.67;;;;;;;-146.19;100.00;58918.88;4975554;28;20074;-49
2022/01/27 00:51:44;;;;;;;51.47;20.45;;;;;;;-146.19;100.00;58918.88;4970101;28;20073;-56
2022/01/27 00:54:18;;;;;;;41.75;18.48;;;;;;;-146.19;100.00;58918.88;4983149;28;20464;-50
2022/01/27 00:56:53;;;;;;;45.00;20.13;;;;;;;-146.19;100.00;58918.88;4992402;28;20078;-53
2022/01/27 00:59:33;;;;;;;43.92;19.65;;;;;;;-146.19;100.00;58918.88;4998383;28;20092;-50
2022/01/27 01:02:11;;;;;;;38.65;17.98;;;;;;;-146.19;100.00;58918.88;4993551;28;20306;-53
2022/01/27 01:04:43;;;;;;;45.00;17.65;;;;;;;-146.19;100.00;58918.88;4998948;28;20504;-53
2022/01/27 01:07:13;;;;;;;47.28;20.17;;;;;;;-146.19;100.00;58918.88;4982336;28;20086;-51
2022/01/27 01:15:28;;;;;;;42.72;19.60;;;;;;;-146.19;100.00;58918.88;4995547;28;20065;-56
2022/01/27 01:18:07;;;;;;;29.63;14.43;;;;;;;-146.19;100.00;58918.88;4995395;28;20557;-51
2022/01/27 01:29:29;;;;;;;43.50;19.80;;;;;;;-146.19;100.00;58918.88;4986225;28;20065;-53
2022/01/27 01:32:13;;;;;;;45.13;20.52;;;;;;;-146.19;100.00;58918.88;4970243;28;20384;-51
2022/01/27 01:34:45;;;;;;;46.60;21.42;;;;;;;-146.19;100.00;58918.88;4973141;28;20085;-49
2022/01/27 01:37:18;;;;;;;50.70;20.70;;;;;;;-146.19;100.00;58918.88;4970805;28;20089;-51
2022/01/27 01:39:46;;;;;;;45.78;19.63;;;;;;;-146.19;100.00;58918.88;4969963;28;20074;-49
2022/01/27 01:42:15;;;;;;;46.67;17.85;;;;;;;-146.19;100.00;58918.88;4971662;28;20062;-50
2022/01/27 01:44:48;;;;;;;43.97;20.55;;;;;;;-146.19;100.00;58918.88;4975960;28;20086;-52
2022/01/27 01:47:20;;;;;;;48.20;20.63;;;;;;;-146.19;100.00;58918.88;4996327;28;20086;-47
2022/01/27 01:49:48;;;;;;;44.92;19.38;;;;;;;-146.19;100.00;58918.88;4997662;28;20076;-49
2022/01/27 01:52:16;;;;;;;42.40;18.92;;;;;;;-146.19;100.00;58918.88;4994101;28;20062;-54
2022/01/27 01:54:45;;;;;;;51.17;20.90;;;;;;;-146.19;100.00;58918.88;4997177;28;20069;-49
2022/01/27 01:57:13;;;;;;;48.72;20.55;;;;;;;-146.19;100.00;58918.88;4998447;28;20492;-54
2022/01/27 01:59:42;;;;;;;47.95;21.50;;;;;;;-146.19;100.00;58918.88;4995570;28;20477;-51
2022/01/27 02:02:12;;;;;;;48.83;22.17;;;;;;;-146.19;100.00;58918.88;4998471;28;20092;-48
2022/01/27 02:04:41;;;;;;;50.28;20.83;;;;;;;-146.19;100.00;58918.88;4997209;28;20073;-58
2022/01/27 02:07:25;;;;;;;43.83;19.75;;;;;;;-146.19;100.00;58918.88;4993937;28;20057;-46
2022/01/27 02:10:07;;;;;;;44.85;20.15;;;;;;;-146.19;100.00;58918.88;4983273;28;20089;-56
2022/01/27 02:18:11;;;;;;;47.20;20.90;;;;;;;-146.19;100.00;58918.88;4963284;28;20046;-55
2022/01/27 02:20:42;;;;;;;36.20;18.52;;;;;;;-146.19;100.00;58918.88;5007929;28;20051;-51
2022/01/27 02:23:11;;;;;;;44.50;19.85;;;;;;;-146.19;100.00;58918.88;4996410;28;20078;-50
2022/01/27 02:25:40;;;;;;;42.47;19.85;;;;;;;-146.19;100.00;58918.88;4998156;28;20070;-53
2022/01/27 02:28:08;;;;;;;41.42;18.88;;;;;;;-146.19;100.00;58918.88;5001383;28;20073;-55
2022/01/27 02:30:37;;;;;;;42.65;20.00;;;;;;;-146.19;100.00;58918.88;5000549;28;20089;-51
2022/01/27 02:33:05;;;;;;;42.88;19.77;;;;;;;-146.19;100.00;58918.88;4995492;28;20068;-50
2022/01/27 02:35:35;;;;;;;35.05;16.63;;;;;;;-146.19;100.00;58918.88;4992165;28;20082;-55
2022/01/27 02:38:06;;;;;;;37.30;18.00;;;;;;;-146.19;100.00;58918.88;4999419;28;20073;-53
2022/01/27 02:40:35;;;;;;;43.25;20.52;;;;;;;-146.19;100.00;58918.88;5004076;28;20460;-55
2022/01/27 02:43:05;;;;;;;42.87;20.70;;;;;;;-146.19;100.00;58918.88;5009528;28;20076;-49
2022/01/27 02:45:38;;;;;;;47.20;21.80;;;;;;;-146.19;100.00;58918.88;5001035;28;20528;-52
2022/01/27 02:48:06;;;;;;;46.13;21.70;;;;;;;-146.19;100.00;58918.88;4998804;28;20491;-52
2022/01/27 02:50:35;;;;;;;42.00;19.50;;;;;;;-146.19;100.00;58918.88;4998855;28;20062;-54
2022/01/27 02:53:05;;;;;;;43.00;21.20;;;;;;;-146.19;100.00;58918.88;5008517;28;20081;-57
2022/01/27 02:55:33;;;;;;;45.22;20.73;;;;;;;-146.19;100.00;58918.88;4998079;28;20074;-53
2022/01/27 02:58:03;;;;;;;47.08;20.27;;;;;;;-146.19;100.00;58918.88;5006902;28;20094;-58
2022/01/27 03:00:32;;;;;;;46.70;20.90;;;;;;;-146.19;100.00;58918.88;4998815;28;20066;-55
2022/01/27 03:03:01;;;;;;;49.30;21.27;;;;;;;-146.19;100.00;58918.88;4996752;28;20058;-49
2022/01/27 03:05:30;;;;;;;45.65;21.17;;;;;;;-146.19;100.00;58918.88;5000256;28;20394;-52
2022/01/27 03:07:58;;;;;;;47.35;21.33;;;;;;;-146.19;100.00;58918.88;5006684;28;21417;-54
2022/01/27 03:10:31;;;;;;;49.20;20.73;;;;;;;-146.19;100.00;58918.88;5002381;28;20056;-55
2022/01/27 03:13:00;;;;;;;45.67;21.70;;;;;;;-146.19;100.00;58918.88;5001475;28;20131;-50
2022/01/27 03:15:29;;;;;;;45.65;21.13;;;;;;;-146.19;100.00;58918.88;4989551;28;20488;-52
2022/01/27 03:17:57;;;;;;;46.35;21.55;;;;;;;-146.19;100.00;58918.88;4974261;28;20074;-55
2022/01/27 03:20:32;;;;;;;50.80;21.67;;;;;;;-146.19;100.00;58918.88;4977672;28;20536;-53
2022/01/27 03:23:00;;;;;;;47.58;22.05;;;;;;;-146.19;100.00;58918.88;4971269;28;20082;-51
2022/01/27 03:25:31;;;;;;;49.03;22.25;;;;;;;-146.19;100.00;58918.88;4973536;28;20078;-55
2022/01/27 03:27:59;;;;;;;45.20;20.65;;;;;;;-146.19;100.00;58918.88;4969716;28;20097;-52
2022/01/27 03:30:28;;;;;;;54.15;23.70;;;;;;;-146.19;100.00;58918.88;4974542;28;20066;-49
2022/01/27 03:32:56;;;;;;;47.42;22.23;;;;;;;-146.19;100.00;58918.88;4985372;28;20488;-53
2022/01/27 03:35:25;;;;;;;41.17;19.23;;;;;;;-146.19;100.00;58918.88;5006566;28;20078;-55
2022/01/27 03:37:54;;;;;;;46.70;22.48;;;;;;;-146.19;100.00;58918.88;5004785;28;20069;-51
2022/01/27 03:40:22;;;;;;;47.42;21.98;;;;;;;-146.19;100.00;58918.88;4998218;28;20066;-51
2022/01/27 03:43:03;;;;;;;49.00;23.33;;;;;;;-146.19;100.00;58918.88;5004490;28;20104;-47
2022/01/27 03:45:31;;;;;;;;;;;;;;;-146.19;100.00;58918.88;4994098;28;20517;-53
2022/01/27 03:48:00;;;;;;;34.88;17.80;;;;;;;-146.19;100.00;58918.88;5005189;28;19964;-54
2022/01/27 03:50:28;;;;;;;44.70;21.33;;;;;;;-146.19;100.00;58918.88;4996154;28;20085;-54
2022/01/27 03:52:57;;;;;;;52.15;22.40;;;;;;;-146.19;100.00;58918.88;4973401;28;20568;-52
2022/01/27 03:55:26;;;;;;;49.88;23.27;;;;;;;-146.19;100.00;58918.88;4992727;28;20072;-58
2022/01/27 03:57:56;;;;;;;55.35;25.30;;;;;;;-146.19;100.00;58918.88;4996139;28;20063;-50
2022/01/27 04:00:25;;;;;;;54.88;24.38;;;;;;;-146.19;100.00;58918.88;4987761;28;20537;-56
2022/01/27 04:03:01;;;;;;;54.45;24.05;;;;;;;-146.19;100.00;58918.88;4978496;28;20069;-56
2022/01/27 04:05:35;;;;;;;53.38;23.85;;;;;;;-146.19;100.00;58918.88;4974247;28;20094;-52
2022/01/27 04:08:04;;;;;;;57.05;24.20;;;;;;;-146.19;100.00;58918.88;4974612;28;20089;-53
2022/01/27 04:10:32;;;;;;;56.72;24.05;;;;;;;-146.19;100.00;58918.88;4975403;28;20062;-48
2022/01/27 04:13:03;;;;;;;56.63;23.95;;;;;;;-146.19;100.00;58918.88;4974469;28;20069;-52
2022/01/27 04:15:31;;;;;;;;;;;;;;;-146.19;100.00;58918.88;4977126;28;20063;-56
2022/01/27 04:18:00;;;;;;;55.53;24.63;;;;;;;-146.19;100.00;58918.88;4975973;28;20377;-52
2022/01/27 04:20:28;;;;;;;49.35;22.73;;;;;;;-146.19;100.00;58918.88;4981012;28;20473;-52
2022/01/27 04:22:57;;;;;;;52.45;24.58;;;;;;;-146.19;100.00;58918.88;4969961;28;20089;-49
2022/01/27 04:25:25;;;;;;;43.92;20.02;;;;;;;-146.19;100.00;58918.88;4973635;28;20085;-49
2022/01/27 04:27:58;;;;;;;52.40;23.85;;;;;;;-146.19;100.00;58918.88;4986500;28;20100;-50
2022/01/27 04:30:28;;;;;;;47.13;22.85;;;;;;;-146.19;100.00;58918.88;4987807;28;20583;-53
2022/01/27 04:32:58;;;;;;;51.03;24.95;;;;;;;-146.19;100.00;58918.88;4975231;28;20073;-54
2022/01/27 04:35:31;;;;;;;52.47;25.48;;;;;;;-146.19;100.00;58918.88;4973831;28;20078;-55
2022/01/27 04:38:13;;;;;;;61.17;26.38;;;;;;;-146.19;100.00;58918.88;4970198;28;20441;-53
2022/01/27 04:40:50;;;;;;;54.85;26.65;;;;;;;-146.19;100.00;58918.88;4994931;28;20085;-50
2022/01/27 04:43:25;;;;;;;58.22;26.55;;;;;;;-146.19;100.00;58918.88;4980088;28;20066;-47
2022/01/27 04:46:04;;;;;;;57.42;25.73;;;;;;;-146.19;100.00;58918.88;4990986;28;20066;-54
2022/01/27 04:48:37;;;;;;;61.85;27.27;;;;;;;-146.19;100.00;58918.88;5002145;28;20522;-50
2022/01/27 04:51:09;;;;;;;58.92;25.98;;;;;;;-146.19;100.00;58918.88;5007865;28;20069;-51
2022/01/27 04:53:42;;;;;;;55.35;24.50;;;;;;;-146.19;100.00;58918.88;4995204;28;20206;-49
2022/01/27 04:56:19;;;;;;;58.63;26.45;;;;;;;-146.19;100.00;58918.88;4993151;28;20112;-48
2022/01/27 04:58:51;;;;;;;62.10;26.90;;;;;;;-146.19;100.00;58918.88;4999484;28;20057;-52
2022/01/27 05:01:28;;;;;;;55.80;25.58;;;;;;;-146.19;100.00;58918.88;4973758;28;20123;-47
2022/01/27 05:04:01;;;;;;;59.05;25.75;;;;;;;-146.19;100.00;58918.88;4974520;28;20075;-54
2022/01/27 05:06:29;;;;;;;60.22;26.48;;;;;;;-146.19;100.00;58918.88;4972075;28;20076;-48
2022/01/27 05:08:58;;;;;;;60.53;26.88;;;;;;;-146.19;100.00;58918.88;4974703;28;20070;-50
2022/01/27 05:11:30;;;;;;;61.05;28.08;;;;;;;-146.19;100.00;58918.88;4993291;28;20069;-56
2022/01/27 05:14:09;;;;;;;53.00;22.58;;;;;;;-146.19;100.00;58918.88;4994882;28;20623;-52
2022/01/27 05:16:39;;;;;;;66.50;27.10;;;;;;;-146.19;100.00;58918.88;4984891;28;20073;-51
2022/01/27 05:19:07;;;;;;;57.85;25.88;;;;;;;-146.19;100.00;58918.88;4984732;28;20081;-49
2022/01/27 05:21:37;;;;;;;64.22;28.27;;;;;;;-146.19;100.00;58918.88;4978850;28;20110;-47
2022/01/27 05:24:06;;;;;;;63.15;28.20;;;;;;;-146.19;100.00;58918.88;4974814;28;20661;-53
2022/01/27 05:26:35;;;;;;;61.88;28.83;;;;;;;-146.19;100.00;58918.88;4972337;28;20481;-57
2022/01/27 05:29:04;;;;;;;55.75;24.83;;;;;;;-146.19;100.00;58918.88;4986850;28;20078;-55
2022/01/27 05:31:32;;;;;;;68.35;33.42;;;;;;;-146.19;100.00;58918.88;4999099;28;20069;-50
2022/01/27 05:34:03;;;;;;;67.28;29.33;;;;;;;-146.19;100.00;58918.88;5001870;28;20559;-49
2022/01/27 05:36:31;;;;;;;67.35;31.75;;;;;;;-146.19;100.00;58918.88;4998718;28;20455;-52
2022/01/27 05:39:00;;;;;;;67.95;31.15;;;;;;;-146.19;100.00;58918.88;4999801;28;20669;-57
2022/01/27 05:41:28;;;;;;;66.28;32.15;;;;;;;-146.19;100.00;58918.88;5000953;28;20108;-55
2022/01/27 05:43:56;;;;;;;70.82;33.88;;;;;;;-146.19;100.00;58918.88;4999190;28;20475;-53
2022/01/27 05:46:25;;;;;;;67.72;33.33;;;;;;;-146.19;100.00;58918.88;5008412;28;20064;-49
2022/01/27 05:48:54;;;;;;;68.22;32.85;;;;;;;-146.19;100.00;58918.88;4997285;28;20068;-52
2022/01/27 05:51:24;;;;;;;74.65;34.72;;;;;;;-146.19;100.00;58918.88;4993202;28;20080;-53
2022/01/27 05:53:52;;;;;;;65.07;29.17;;;;;;;-146.19;100.00;58918.88;5001010;28;20069;-50
2022/01/27 05:56:21;;;;;;;65.82;29.02;;;;;;;-146.19;100.00;58918.88;5009321;28;20088;-50
2022/01/27 05:58:49;;;;;;;68.00;30.23;;;;;;;-146.19;100.00;58918.88;4970803;28;20077;-53
2022/01/27 06:01:18;;;;;;;60.65;28.27;;;;;;;-146.19;100.00;58918.88;4970946;28;20070;-50
2022/01/27 06:03:46;;;;;;;69.50;32.15;;;;;;;-146.19;100.00;58918.88;4985429;28;20068;-54
2022/01/27 06:06:15;;;;;;;74.20;32.75;;;;;;;-146.19;100.00;58918.88;4988664;28;20536;-53
2022/01/27 06:08:45;;;;;;;68.15;28.98;;;;;;;-146.19;100.00;58918.88;4978136;28;20496;-56
2022/01/27 06:11:13;;;;;;;69.28;31.38;;;;;;;-146.19;100.00;58918.88;4981141;28;20089;-55
2022/01/27 06:13:43;;;;;;;66.80;29.48;;;;;;;-146.19;100.00;58918.88;4982859;28;20082;-55
2022/01/27 06:16:12;;;;;;;70.15;30.35;;;;;;;-146.19;100.00;58918.88;4979711;28;20493;-52
2022/01/27 06:18:41;;;;;;;62.55;28.20;;;;;;;-146.19;100.00;58918.88;4978434;28;20077;-53
2022/01/27 06:21:12;;;;;;;68.35;29.13;;;;;;;-146.19;100.00;58918.88;4978765;28;20066;-55
2022/01/27 06:23:41;;;;;;;68.30;30.15;;;;;;;-146.19;100.00;58918.88;4981327;28;20082;-53
2022/01/27 06:26:10;;;;;;;64.68;28.13;;;;;;;-146.19;100.00;58918.88;4984390;28;20089;-49
2022/01/27 06:28:39;;;;;;;70.05;32.30;;;;;;;-146.19;100.00;58918.88;4973799;28;20073;-57
2022/01/27 06:31:07;;;;;;;71.78;28.77;;;;;;;-146.19;100.00;58918.88;4973556;28;20070;-51
2022/01/27 06:33:36;;;;;;;62.47;29.83;;;;;;;-146.19;100.00;58918.88;4984234;28;20070;-50
2022/01/27 06:36:04;;;;;;;65.70;29.70;;;;;;;-146.19;100.00;58918.88;5002256;28;20528;-56
2022/01/27 06:38:33;;;;;;;54.47;25.08;;;;;;;-146.19;100.00;58918.88;5004234;28;20081;-50
2022/01/27 06:41:01;;;;;;;65.38;29.13;;;;;;;-146.19;100.00;58918.88;4999878;28;20089;-48
2022/01/27 06:43:31;;;;;;;67.30;30.65;;;;;;;-146.19;100.00;58918.88;5001849;28;20077;-55
2022/01/27 06:46:00;;;;;;;69.00;30.90;;;;;;;-146.19;100.00;58918.88;5006534;28;20077;-56
2022/01/27 06:48:28;;;;;;;65.25;31.38;;;;;;;-146.19;100.00;58918.88;5000662;28;20082;-57
2022/01/27 06:50:57;;;;;;;66.80;31.13;;;;;;;-146.19;100.00;58918.88;4999883;28;20551;-50
2022/01/27 06:53:25;;;;;;;74.85;32.13;;;;;;;-146.19;100.00;58918.88;5004758;28;20073;-53
2022/01/27 06:55:54;;;;;;;67.43;32.38;;;;;;;-146.19;100.00;58918.88;5008913;28;20073;-52
2022/01/27 06:58:23;;;;;;;65.55;29.98;;;;;;;-146.19;100.00;58918.88;4999022;28;20078;-50
2022/01/27 07:00:53;;;;;;;65.05;28.75;;;;;;;-146.19;100.00;58918.88;5001405;28;20531;-56
2022/01/27 07:03:21;;;;;;;63.63;29.35;;;;;;;-146.19;100.00;58918.88;4994302;28;20070;-50
2022/01/27 07:05:50;;;;;;;77.82;34.53;;;;;;;-146.19;100.00;58918.88;5006024;28;26955;-50
2022/01/27 07:08:18;;;;;;;64.53;28.50;;;;;;;-146.19;100.00;58918.88;5003997;28;20489;-55
2022/01/27 07:10:47;;;;;;;71.55;31.15;;;;;;;-146.19;100.00;58918.88;4999312;28;20474;-50
2022/01/27 07:13:15;;;;;;;65.57;28.35;;;;;;;-146.19;100.00;58918.88;5000869;28;20064;-58
2022/01/27 07:15:44;;;;;;;64.72;30.80;;;;;;;-146.19;100.00;58918.88;4995098;28;20113;-58
2022/01/27 07:18:14;;;;;;;60.05;28.70;;;;;;;-146.19;100.00;58918.88;4989004;28;20485;-52
2022/01/27 07:20:42;;;;;;;61.13;28.63;;;;;;;-146.19;100.00;58918.88;4971600;28;20694;-57
2022/01/27 07:23:11;;;;;;;61.22;29.13;;;;;;;-146.19;100.00;58918.88;4974910;28;20089;-49
2022/01/27 07:25:40;;;;;;;65.70;30.35;;;;;;;-146.19;100.00;58918.88;4976698;28;20536;-50
2022/01/27 07:28:09;;;;;;;60.63;28.73;;;;;;;-146.19;100.00;58918.88;4975195;28;20078;-56
2022/01/27 07:30:37;;;;;;;54.67;26.98;;;;;;;-146.19;100.00;58918.88;4978332;28;20074;-50
2022/01/27 07:33:05;;;;;;;63.38;29.85;;;;;;;-146.19;100.00;58918.88;4975331;28;20460;-53
2022/01/27 07:35:35;;;;;;;57.85;28.15;;;;;;;-146.19;100.00;58918.88;4976727;28;20124;-53
2022/01/27 07:38:04;;;;;;;60.30;29.90;;;;;;;-146.19;100.00;58918.88;4975033;28;20058;-51
2022/01/27 07:40:33;;;;;;;58.35;27.77;;;;;;;-146.19;100.00;58918.88;4976226;28;20066;-53
2022/01/27 07:43:15;;;;;;;54.80;25.83;;;;;;;-146.19;100.00;58918.88;4993006;28;20066;-53
2022/01/27 07:45:43;;;;;;;54.08;25.55;;;;;;;-146.19;100.00;58918.88;4997138;28;20078;-50
2022/01/27 07:48:12;;;;;;;61.47;29.35;;;;;;;-146.19;100.00;58918.88;4997159;28;20644;-55
2022/01/27 07:50:42;;;;;;;62.67;29.50;;;;;;;-146.19;100.00;58918.88;4998788;28;20112;-52
2022/01/27 07:53:10;;;;;;;59.13;27.60;;;;;;;-146.19;100.00;58918.88;4995046;28;20097;-49
2022/01/27 07:55:39;;;;;;;59.35;29.20;;;;;;;-146.19;100.00;58918.88;4998675;28;20094;-52
2022/01/27 07:58:07;;;;;;;57.92;27.85;;;;;;;-146.19;100.00;58918.88;4993281;28;20058;-52
2022/01/27 08:00:36;;;;;;;55.85;29.75;;;;;;;-146.19;100.00;58918.88;4993912;28;20081;-49
2022/01/27 08:03:05;;;;;;;55.25;27.55;;;;;;;-146.19;100.00;58918.88;4998010;28;20087;-53
2022/01/27 08:05:33;;;;;;;55.08;27.98;;;;;;;-146.19;100.00;58918.88;4995664;28;20577;-51
2022/01/27 08:08:03;;;;;;;56.53;28.70;;;;;;;-146.19;100.00;58918.88;4999451;28;20457;-48
2022/01/27 08:10:37;;;;;;;58.45;28.05;;;;;;;-146.19;100.00;58918.88;4994728;28;20066;-52
2022/01/27 08:13:05;;;;;;;60.75;28.95;;;;;;;-146.19;100.00;58918.88;4999230;28;20065;-51
2022/01/27 08:15:34;;;;;;;52.92;28.00;;;;;;;-146.19;100.00;58918.88;4994323;28;20062;-55
2022/01/27 08:18:03;;;;;;;52.35;27.20;;;;;;;-146.19;100.00;58918.88;4994441;28;20074;-48
2022/01/27 08:20:31;;;;;;;52.15;26.70;;;;;;;-146.19;100.00;58918.88;4994764;28;20082;-55
2022/01/27 08:23:00;;;;;;;50.25;27.17;;;;;;;-146.19;100.00;58918.88;4999778;28;20112;-60
2022/01/27 08:25:29;;;;;;;48.38;25.58;;;;;;;-146.19;100.00;58918.88;4998842;28;20084;-50
2022/01/27 08:28:00;;;;;;;49.63;24.38;;;;;;;-146.19;100.00;58918.88;5000766;28;20797;-56
2022/01/27 08:30:36;;;;;;;48.15;23.90;;;;;;;-146.19;100.00;58918.88;4996909;28;20074;-55
2022/01/27 08:33:08;;;;;;;51.75;26.08;;;;;;;-146.19;100.00;58918.88;5001636;28;20073;-51
2022/01/27 08:35:37;;;;;;;45.72;24.52;;;;;;;-146.19;100.00;58918.88;4994802;28;20089;-50
2022/01/27 08:38:05;;;;;;;47.60;25.20;;;;;;;-146.19;100.00;58918.88;4974067;28;20174;-57
2022/01/27 08:40:36;;;;;;;47.15;24.73;;;;;;;-146.19;100.00;58918.88;4970206;28;20632;-51
2022/01/27 08:43:24;;;;;;;44.50;24.17;;;;;;;-146.19;100.00;58918.88;4986320;28;20065;-52
2022/01/27 08:45:53;;;;;;;34.72;19.67;;;;;;;-146.19;100.00;58918.88;4982088;28;20089;-54
2022/01/27 08:48:22;;;;;;;33.25;16.73;;;;;;;-146.19;100.00;58918.88;4971580;28;20082;-53
2022/01/27 08:50:58;;;;;;;36.92;20.83;;;;;;;-146.19;100.00;58918.88;4977145;28;20085;-53
2022/01/27 08:53:46;;;;;;;31.65;16.73;;;;;;;-146.19;100.00;58918.88;4995862;28;20070;-53
2022/01/27 08:56:16;;;;;;;28.85;15.48;;;;;;;-146.19;100.00;58918.88;5002330;28;20077;-49
2022/01/27 08:58:46;;;;;;;22.02;13.38;;;;;;;-146.19;100.00;58918.88;4993137;28;20070;-55
2022/01/27 09:01:14;;;;;;;28.80;16.40;;;;;;;-146.19;100.00;58918.88;4999642;28;20091;-51
2022/01/27 09:03:45;;;;;;;25.08;15.40;;;;;;;-146.19;100.00;58918.88;4998272;28;20072;-52
2022/01/27 09:06:13;;;;;;;;;;;;;;;-146.19;100.00;58918.88;4995619;28;20077;-52
2022/01/27 09:08:42;;;;;;;23.20;14.05;;;;;;;-146.19;100.00;58918.88;4995136;28;19969;-52
2022/01/27 09:11:11;;;;;;;23.88;14.30;;;;;;;-146.19;100.00;58918.88;4981208;28;20082;-52
2022/01/27 09:13:41;;;;;;;27.25;16.58;;;;;;;-146.19;100.00;58918.88;4978364;28;20074;-49
2022/01/27 09:16:11;;;;;;;22.67;14.10;;;;;;;-146.19;100.00;58918.88;4970295;28;20070;-55
2022/01/27 09:18:39;;;;;;;22.70;14.07;;;;;;;-146.19;100.00;58918.88;4987378;28;20085;-50
2022/01/27 09:21:12;;;;;;;19.58;12.15;;;;;;;-146.19;100.00;58918.88;5001360;28;20065;-51
2022/01/27 09:23:41;;;;;;;25.52;14.75;;;;;;;-146.19;100.00;58918.88;4996288;28;20086;-54
2022/01/27 09:26:26;;;;;;;20.02;11.43;;;;;;;-146.19;100.00;58918.88;5000365;28;20080;-46
2022/01/27 09:28:56;;;;;;;19.50;10.73;;;;;;;-146.19;100.00;58918.88;4997491;28;20070;-56
2022/01/27 09:31:24;;;;;;;17.88;10.02;;;;;;;-146.19;100.00;58918.88;4997970;28;20037;-50
2022/01/27 09:33:53;;;;;;;17.90;9.88;;;;;;;-146.19;100.00;58918.88;4998120;28;20937;-52
2022/01/27 09:36:21;;;;;;;15.98;9.65;;;;;;;-146.19;100.00;58918.88;5001218;28;20076;-47
2022/01/27 09:38:50;;;;;;;14.30;8.05;;;;;;;-146.19;100.00;58918.88;4998472;28;20081;-54
2022/01/27 09:41:20;;;;;;;17.20;10.60;;;;;;;-146.19;100.00;58918.88;5006516;28;20081;-54
2022/01/27 09:43:52;;;;;;;17.88;11.15;;;;;;;-146.19;100.00;58918.88;5004854;28;20096;-52
2022/01/27 09:46:24;;;;;;;11.43;7.90;;;;;;;-146.19;100.00;58918.88;4995288;28;20078;-46
2022/01/27 09:48:54;;;;;;;15.63;10.65;;;;;;;-146.19;100.00;58918.88;5001575;28;20062;-53
2022/01/27 09:51:37;;;;;;;17.55;11.15;;;;;;;-146.19;100.00;58918.88;5001065;28;20081;-53
2022/01/27 09:54:06;;;;;;;14.07;8.20;;;;;;;-146.19;100.00;58918.88;4992218;28;20529;-50
2022/01/27 09:56:35;;;;;;;14.05;9.98;;;;;;;-146.19;100.00;58918.88;4973074;28;20089;-57
2022/01/27 09:59:05;;;;;;;25.75;10.13;;;;;;;-146.19;100.00;58918.88;4977482;28;20074;-54
2022/01/27 10:01:36;;;;;;;20.77;11.85;;;;;;;-146.19;100.00;58918.88;4974242;28;20065;-50
2022/01/27 10:04:06;;;;;;;13.85;8.38;;;;;;;-146.19;100.00;58918.88;4975314;28;20078;-46
2022/01/27 10:06:36;;;;;;;15.65;9.60;;;;;;;-146.19;100.00;58918.88;4981688;28;20074;-48
2022/01/27 10:09:12;;;;;;;10.40;7.53;;;;;;;-146.19;100.00;58918.88;4996549;28;20098;-47
2022/01/27 10:11:41;;;;;;;11.82;8.55;;;;;;;-146.19;100.00;58918.88;4995300;28;20078;-48
2022/01/27 10:14:21;;;;;;;14.27;9.02;;;;;;;-146.19;100.00;58918.88;4994933;28;20089;-53
2022/01/27 10:16:53;;;;;;;14.30;8.52;;;;;;;-146.19;100.00;58918.88;4988821;28;20077;-46
2022/01/27 10:19:25;;;;;;;14.35;9.07;;;;;;;-146.19;100.00;58918.88;4994617;28;20472;-53
2022/01/27 10:22:00;;;;;;;12.25;9.60;;;;;;;-146.19;100.00;58918.88;4996149;28;20524;-49
2022/01/27 10:24:30;;;;;;;16.85;10.73;;;;;;;-146.19;100.00;58918.88;4995331;28;20141;-56
2022/01/27 10:27:20;;;;;;;13.80;8.90;;;;;;;-146.19;100.00;58918.88;4997664;28;20084;-52
2022/01/27 10:30:35;;;;;;;15.80;9.85;;;;;;;-146.19;100.00;58918.88;4992585;28;20082;-49
2022/01/27 10:32:54;;;;;;;14.27;8.85;;;;;;;-146.19;100.00;58918.88;4992296;28;20080;-51
2022/01/27 10:35:25;;;;;;;13.25;8.68;;;;;;;-146.19;100.00;58918.88;4998115;28;20082;-53
2022/01/27 10:38:02;;;;;;;13.65;9.00;;;;;;;-146.19;100.00;58918.88;4979648;28;20070;-52
2022/01/27 10:40:33;;;;;;;8.85;7.20;;;;;;;-146.19;100.00;58918.88;4977237;28;20469;-54
2022/01/27 10:43:14;;;;;;;19.33;12.07;;;;;;;-146.19;100.00;58918.88;4973394;28;20074;-52
2022/01/27 10:46:05;;;;;;;13.52;9.30;;;;;;;-146.19;100.00;58918.88;4971257;28;20086;-53
2022/01/27 10:48:40;;;;;;;20.80;13.52;;;;;;;-146.19;100.00;58918.88;4970493;28;20078;-53
2022/01/27 10:51:17;;;;;;;20.85;12.18;;;;;;;-146.19;100.00;58918.88;4975616;28;20081;-55
2022/01/27 10:53:55;;;;;;;20.83;12.88;;;;;;;-146.19;100.00;58918.88;4993056;28;20086;-49
2022/01/27 10:56:25;;;;;;;17.98;11.60;;;;;;;-146.19;100.00;58918.88;4975118;28;20083;-52
2022/01/27 10:58:55;;;;;;;19.15;12.45;;;;;;;-146.19;100.00;58918.88;4979809;28;20071;-52
2022/01/27 11:01:29;;;;;;;17.77;9.23;;;;;;;-146.19;100.00;58918.88;4974754;28;20069;-54
2022/01/27 11:04:01;;;;;;;13.38;9.23;;;;;;;-146.19;100.00;58918.88;4982943;28;20482;-52
2022/01/27 11:06:32;;;;;;;12.57;8.30;;;;;;;-146.19;100.00;58918.88;4982905;28;20066;-54
2022/01/27 11:09:05;;;;;;;;;;;;;;;-146.19;100.00;58918.88;4975412;28;20070;-52
2022/01/27 11:11:34;;;;;;;17.98;10.85;;;;;;;-146.19;100.00;58918.88;4983135;28;19953;-54
2022/01/27 11:14:04;;;;;;;13.65;9.40;;;;;;;-146.19;100.00;58918.88;4980120;28;20086;-53
2022/01/27 11:16:38;;;;;;;19.10;11.50;;;;;;;-146.19;100.00;58918.88;4992756;28;20062;-52
2022/01/27 11:22:03;;;;;;;16.23;11.25;;;;;;;-146.19;100.00;58918.88;4972234;28;20073;-51
2022/01/27 11:24:54;;;;;;;14.82;8.57;;;;;;;-146.19;100.00;58918.88;5000945;28;20058;-51
2022/01/27 11:27:22;;;;;;;;;;;;;;;-146.19;100.00;58918.88;4992966;28;20067;-50
2022/01/27 11:29:55;;;;;;;12.43;8.27;;;;;;;-146.19;100.00;58918.88;4996257;28;19984;-51
2022/01/27 11:32:29;;;;;;;9.63;7.15;;;;;;;-146.19;100.00;58918.88;5011691;28;20088;-52
2022/01/27 11:34:59;;;;;;;14.93;9.68;;;;;;;-146.19;100.00;58918.88;4999828;28;20658;-55
2022/01/27 11:37:33;;;;;;;14.68;8.73;;;;;;;-146.19;100.00;58918.88;4981875;28;20062;-52